createdAt,value
2018-09-02T00:00:33.417Z,1019.80
2018-09-02T00:01:33.431Z,1019.79
2018-09-02T00:02:33.393Z,1019.81
2018-09-02T00:03:33.383Z,1019.80
2018-09-02T00:04:33.371Z,1019.79
2018-09-02T00:05:33.359Z,1019.76
2018-09-02T00:06:33.375Z,1019.79
2018-09-02T00:07:33.341Z,1019.81
2018-09-02T00:08:33.327Z,1019.80
2018-09-02T00:09:33.315Z,1019.79
2018-09-02T00:10:33.306Z,1019.74
2018-09-02T00:11:33.317Z,1019.80
2018-09-02T00:12:33.283Z,1019.76
2018-09-02T00:13:33.273Z,1019.77
2018-09-02T00:14:33.261Z,1019.79
2018-09-02T00:15:33.252Z,1019.76
2018-09-02T00:16:33.264Z,1019.73
2018-09-02T00:17:33.228Z,1019.78
2018-09-02T00:18:33.216Z,1019.77
2018-09-02T00:19:33.205Z,1019.76
2018-09-02T00:20:33.237Z,1019.78
2018-09-02T00:21:33.207Z,1019.78
2018-09-02T00:22:33.172Z,1019.78
2018-09-02T00:23:33.159Z,1019.75
2018-09-02T00:24:33.153Z,1019.72
2018-09-02T00:25:33.138Z,1019.74
2018-09-02T00:26:33.152Z,1019.73
2018-09-02T00:27:33.115Z,1019.76
2018-09-02T00:28:33.103Z,1019.74
2018-09-02T00:29:33.093Z,1019.72
2018-09-02T00:30:33.086Z,1019.72
2018-09-02T00:31:33.099Z,1019.70
2018-09-02T00:32:33.060Z,1019.73
2018-09-02T00:33:33.050Z,1019.72
2018-09-02T00:34:33.039Z,1019.73
2018-09-02T00:35:33.029Z,1019.72
2018-09-02T00:36:33.046Z,1019.71
2018-09-02T00:37:33.005Z,1019.76
2018-09-02T00:38:32.993Z,1019.77
2018-09-02T00:39:32.983Z,1019.76
2018-09-02T00:40:32.972Z,1019.76
2018-09-02T00:41:32.987Z,1019.74
2018-09-02T00:42:32.947Z,1019.75
2018-09-02T00:43:32.938Z,1019.71
2018-09-02T00:44:32.927Z,1019.75
2018-09-02T00:45:32.915Z,1019.76
2018-09-02T00:46:32.930Z,1019.72
2018-09-02T00:47:32.892Z,1019.70
2018-09-02T00:48:32.882Z,1019.72
2018-09-02T00:49:32.873Z,1019.67
2018-09-02T00:50:32.859Z,1019.71
2018-09-02T00:51:32.872Z,1019.69
2018-09-02T00:52:32.837Z,1019.69
2018-09-02T00:53:32.825Z,1019.70
2018-09-02T00:54:32.816Z,1019.69
2018-09-02T00:55:32.805Z,1019.73
2018-09-02T00:56:32.817Z,1019.75
2018-09-02T00:57:32.807Z,1019.78
2018-09-02T00:58:32.773Z,1019.81
2018-09-02T00:59:32.760Z,1019.77
2018-09-02T01:00:32.749Z,1019.85
2018-09-02T01:01:32.738Z,1019.82
2018-09-02T01:02:32.752Z,1019.85
2018-09-02T01:03:32.715Z,1019.83
2018-09-02T01:04:32.703Z,1019.83
2018-09-02T01:05:32.692Z,1019.82
2018-09-02T01:06:32.683Z,1019.83
2018-09-02T01:07:32.696Z,1019.77
2018-09-02T01:08:32.659Z,1019.80
2018-09-02T01:09:32.646Z,1019.73
2018-09-02T01:10:32.635Z,1019.78
2018-09-02T01:11:32.633Z,1019.81
2018-09-02T01:12:32.644Z,1019.78
2018-09-02T01:13:32.605Z,1019.81
2018-09-02T01:14:32.590Z,1019.82
2018-09-02T01:15:32.581Z,1019.85
2018-09-02T01:16:32.577Z,1019.85
2018-09-02T01:17:32.582Z,1019.80
2018-09-02T01:18:32.550Z,1019.85
2018-09-02T01:19:32.536Z,1019.87
2018-09-02T01:20:32.530Z,1019.86
2018-09-02T01:21:32.516Z,1019.89
2018-09-02T01:22:32.526Z,1019.86
2018-09-02T01:23:32.492Z,1019.90
2018-09-02T01:24:32.482Z,1019.91
2018-09-02T01:25:32.473Z,1019.87
2018-09-02T01:26:32.459Z,1019.87
2018-09-02T01:27:32.473Z,1019.89
2018-09-02T01:28:32.443Z,1019.91
2018-09-02T01:29:32.425Z,1019.85
2018-09-02T01:30:32.415Z,1019.90
2018-09-02T01:31:32.405Z,1019.89
2018-09-02T01:32:32.417Z,1019.93
2018-09-02T01:33:32.381Z,1019.91
2018-09-02T01:34:32.369Z,1019.91
2018-09-02T01:35:32.358Z,1019.89
2018-09-02T01:36:32.350Z,1019.87
2018-09-02T01:37:32.360Z,1019.93
2018-09-02T01:38:32.325Z,1019.91
2018-09-02T01:39:32.314Z,1019.95
2018-09-02T01:40:32.303Z,1019.90
2018-09-02T01:41:32.290Z,1019.95
2018-09-02T01:42:32.305Z,1019.92
2018-09-02T01:43:32.270Z,1019.95
2018-09-02T01:44:32.259Z,1019.94
2018-09-02T01:45:32.247Z,1019.93
2018-09-02T01:46:32.236Z,1019.92
2018-09-02T01:47:32.250Z,1019.91
2018-09-02T01:48:32.214Z,1019.87
2018-09-02T01:49:32.202Z,1019.88
2018-09-02T01:50:32.193Z,1019.89
2018-09-02T01:51:32.181Z,1019.84
2018-09-02T01:52:32.194Z,1019.86
2018-09-02T01:53:32.162Z,1019.85
2018-09-02T01:54:32.147Z,1019.91
2018-09-02T01:55:32.133Z,1019.87
2018-09-02T01:56:32.124Z,1019.89
2018-09-02T01:57:32.139Z,1019.89
2018-09-02T01:58:32.101Z,1019.90
2018-09-02T01:59:32.089Z,1019.95
2018-09-02T02:00:32.078Z,1019.87
2018-09-02T02:01:32.068Z,1019.87
2018-09-02T02:02:32.084Z,1019.85
2018-09-02T02:03:32.048Z,1019.85
2018-09-02T02:04:32.036Z,1019.83
2018-09-02T02:05:32.024Z,1019.84
2018-09-02T02:06:32.019Z,1019.79
2018-09-02T02:07:32.028Z,1019.82
2018-09-02T02:08:31.991Z,1019.78
2018-09-02T02:09:31.980Z,1019.79
2018-09-02T02:10:31.971Z,1019.72
2018-09-02T02:11:31.958Z,1019.78
2018-09-02T02:12:31.972Z,1019.80
2018-09-02T02:13:31.935Z,1019.82
2018-09-02T02:14:31.923Z,1019.80
2018-09-02T02:15:31.914Z,1019.81
2018-09-02T02:16:31.901Z,1019.80
2018-09-02T02:17:31.915Z,1019.81
2018-09-02T02:18:31.883Z,1019.83
2018-09-02T02:19:31.875Z,1019.83
2018-09-02T02:20:31.857Z,1019.77
2018-09-02T02:21:31.847Z,1019.77
2018-09-02T02:22:31.861Z,1019.76
2018-09-02T02:23:31.828Z,1019.74
2018-09-02T02:24:31.874Z,1019.78
2018-09-02T02:25:31.803Z,1019.78
2018-09-02T02:26:31.789Z,1019.70
2018-09-02T02:27:31.805Z,1019.74
2018-09-02T02:28:31.768Z,1019.73
2018-09-02T02:29:31.757Z,1019.69
2018-09-02T02:30:31.745Z,1019.71
2018-09-02T02:31:31.734Z,1019.76
2018-09-02T02:32:31.748Z,1019.71
2018-09-02T02:33:31.711Z,1019.72
2018-09-02T02:34:31.702Z,1019.70
2018-09-02T02:35:31.690Z,1019.72
2018-09-02T02:36:31.680Z,1019.72
2018-09-02T02:37:31.693Z,1019.72
2018-09-02T02:38:31.657Z,1019.71
2018-09-02T02:39:31.655Z,1019.68
2018-09-02T02:40:31.635Z,1019.71
2018-09-02T02:41:31.623Z,1019.67
2018-09-02T02:42:31.636Z,1019.69
2018-09-02T02:43:31.602Z,1019.70
2018-09-02T02:44:31.588Z,1019.68
2018-09-02T02:45:31.580Z,1019.64
2018-09-02T02:46:31.569Z,1019.67
2018-09-02T02:47:31.559Z,1019.66
2018-09-02T02:48:31.571Z,1019.61
2018-09-02T02:49:31.536Z,1019.65
2018-09-02T02:50:31.523Z,1019.61
2018-09-02T02:51:31.514Z,1019.62
2018-09-02T02:52:31.502Z,1019.60
2018-09-02T02:53:31.513Z,1019.57
2018-09-02T02:54:31.483Z,1019.53
2018-09-02T02:55:31.469Z,1019.57
2018-09-02T02:56:31.455Z,1019.58
2018-09-02T02:57:31.445Z,1019.55
2018-09-02T02:58:31.464Z,1019.52
2018-09-02T02:59:31.423Z,1019.53
2018-09-02T03:00:31.414Z,1019.52
2018-09-02T03:01:31.401Z,1019.55
2018-09-02T03:02:31.390Z,1019.56
2018-09-02T03:03:31.401Z,1019.57
2018-09-02T03:04:31.367Z,1019.51
2018-09-02T03:05:31.357Z,1019.52
2018-09-02T03:06:31.344Z,1019.50
2018-09-02T03:07:31.334Z,1019.49
2018-09-02T03:08:31.348Z,1019.50
2018-09-02T03:09:31.310Z,1019.49
2018-09-02T03:10:31.300Z,1019.50
2018-09-02T03:11:31.287Z,1019.50
2018-09-02T03:12:31.279Z,1019.43
2018-09-02T03:13:31.296Z,1019.45
2018-09-02T03:14:31.256Z,1019.45
2018-09-02T03:15:31.244Z,1019.47
2018-09-02T03:16:31.234Z,1019.42
2018-09-02T03:17:31.234Z,1019.41
2018-09-02T03:18:31.238Z,1019.41
2018-09-02T03:19:31.201Z,1019.41
2018-09-02T03:20:31.190Z,1019.40
2018-09-02T03:21:31.180Z,1019.40
2018-09-02T03:22:31.167Z,1019.41
2018-09-02T03:23:31.182Z,1019.41
2018-09-02T03:24:31.145Z,1019.40
2018-09-02T03:25:31.134Z,1019.47
2018-09-02T03:26:31.123Z,1019.44
2018-09-02T03:27:31.116Z,1019.44
2018-09-02T03:28:31.124Z,1019.46
2018-09-02T03:29:31.090Z,1019.50
2018-09-02T03:30:31.080Z,1019.46
2018-09-02T03:31:31.080Z,1019.50
2018-09-02T03:32:31.056Z,1019.50
2018-09-02T03:33:31.069Z,1019.54
2018-09-02T03:34:31.035Z,1019.50
2018-09-02T03:35:31.021Z,1019.48
2018-09-02T03:36:31.010Z,1019.45
2018-09-02T03:37:31.002Z,1019.39
2018-09-02T03:38:31.015Z,1019.41
2018-09-02T03:39:30.978Z,1019.41
2018-09-02T03:40:30.967Z,1019.40
2018-09-02T03:41:30.956Z,1019.39
2018-09-02T03:42:30.943Z,1019.40
2018-09-02T03:43:30.961Z,1019.42
2018-09-02T03:44:30.922Z,1019.40
2018-09-02T03:45:30.911Z,1019.39
2018-09-02T03:46:30.901Z,1019.37
2018-09-02T03:47:30.891Z,1019.38
2018-09-02T03:48:30.903Z,1019.29
2018-09-02T03:49:30.867Z,1019.29
2018-09-02T03:50:30.856Z,1019.29
2018-09-02T03:51:30.846Z,1019.26
2018-09-02T03:52:30.844Z,1019.25
2018-09-02T03:53:30.846Z,1019.22
2018-09-02T03:54:30.810Z,1019.22
2018-09-02T03:55:30.800Z,1019.27
2018-09-02T03:56:30.788Z,1019.26
2018-09-02T03:57:30.779Z,1019.24
2018-09-02T03:58:30.795Z,1019.19
2018-09-02T03:59:30.756Z,1019.21
2018-09-02T04:00:30.750Z,1019.27
2018-09-02T04:01:30.734Z,1019.24
2018-09-02T04:02:30.722Z,1019.26
2018-09-02T04:03:30.736Z,1019.24
2018-09-02T04:04:30.700Z,1019.29
2018-09-02T04:05:30.690Z,1019.23
2018-09-02T04:06:30.678Z,1019.22
2018-09-02T04:07:30.670Z,1019.25
2018-09-02T04:08:30.686Z,1019.30
2018-09-02T04:09:30.645Z,1019.28
2018-09-02T04:10:30.637Z,1019.24
2018-09-02T04:11:30.681Z,1019.27
2018-09-02T04:12:30.611Z,1019.26
2018-09-02T04:13:30.626Z,1019.23
2018-09-02T04:14:30.588Z,1019.24
2018-09-02T04:15:30.578Z,1019.22
2018-09-02T04:16:30.566Z,1019.24
2018-09-02T04:17:30.555Z,1019.20
2018-09-02T04:18:31.963Z,1019.20
2018-09-02T04:19:30.539Z,1019.25
2018-09-02T04:20:30.523Z,1019.22
2018-09-02T04:21:30.512Z,1019.16
2018-09-02T04:22:30.499Z,1019.17
2018-09-02T04:23:30.513Z,1019.25
2018-09-02T04:24:30.479Z,1019.22
2018-09-02T04:25:30.468Z,1019.24
2018-09-02T04:26:30.457Z,1019.25
2018-09-02T04:27:30.445Z,1019.25
2018-09-02T04:28:30.435Z,1019.20
2018-09-02T04:29:30.448Z,1019.22
2018-09-02T04:30:30.413Z,1019.20
2018-09-02T04:31:30.400Z,1019.17
2018-09-02T04:32:30.389Z,1019.23
2018-09-02T04:33:30.445Z,1019.19
2018-09-02T04:34:30.368Z,1019.25
2018-09-02T04:35:30.356Z,1019.22
2018-09-02T04:36:30.344Z,1019.22
2018-09-02T04:37:30.331Z,1019.25
2018-09-02T04:38:30.323Z,1019.23
2018-09-02T04:39:30.336Z,1019.26
2018-09-02T04:40:30.300Z,1019.25
2018-09-02T04:41:30.290Z,1019.26
2018-09-02T04:42:30.278Z,1019.23
2018-09-02T04:43:30.270Z,1019.22
2018-09-02T04:44:30.280Z,1019.22
2018-09-02T04:45:30.246Z,1019.24
2018-09-02T04:46:30.234Z,1019.22
2018-09-02T04:47:30.222Z,1019.23
2018-09-02T04:48:30.214Z,1019.20
2018-09-02T04:49:30.226Z,1019.19
2018-09-02T04:50:30.188Z,1019.16
2018-09-02T04:51:30.178Z,1019.14
2018-09-02T04:52:30.167Z,1019.12
2018-09-02T04:53:30.153Z,1019.18
2018-09-02T04:54:30.252Z,1019.17
2018-09-02T04:55:30.132Z,1019.15
2018-09-02T04:56:30.122Z,1019.16
2018-09-02T04:57:30.112Z,1019.17
2018-09-02T04:58:30.099Z,1019.19
2018-09-02T04:59:30.112Z,1019.15
2018-09-02T05:00:30.218Z,1019.16
2018-09-02T05:01:30.067Z,1019.18
2018-09-02T05:02:30.056Z,1019.16
2018-09-02T05:03:30.046Z,1019.16
2018-09-02T05:04:30.059Z,1019.13
2018-09-02T05:05:30.022Z,1019.11
2018-09-02T05:06:30.012Z,1019.11
2018-09-02T05:07:30.000Z,1019.13
2018-09-02T05:08:29.991Z,1019.10
2018-09-02T05:09:30.002Z,1019.08
2018-09-02T05:10:29.967Z,1019.11
2018-09-02T05:11:29.955Z,1019.13
2018-09-02T05:12:29.944Z,1019.13
2018-09-02T05:13:29.932Z,1019.10
2018-09-02T05:14:29.947Z,1019.12
2018-09-02T05:15:29.911Z,1019.10
2018-09-02T05:16:29.899Z,1019.13
2018-09-02T05:17:29.889Z,1019.10
2018-09-02T05:18:29.877Z,1019.13
2018-09-02T05:19:32.296Z,1019.11
2018-09-02T05:20:29.857Z,1019.17
2018-09-02T05:21:29.844Z,1019.15
2018-09-02T05:22:29.834Z,1019.17
2018-09-02T05:23:29.820Z,1019.15
2018-09-02T05:24:29.836Z,1019.18
2018-09-02T05:25:29.799Z,1019.19
2018-09-02T05:26:29.792Z,1019.14
2018-09-02T05:27:29.775Z,1019.14
2018-09-02T05:28:29.767Z,1019.13
2018-09-02T05:29:29.779Z,1019.16
2018-09-02T05:30:29.743Z,1019.13
2018-09-02T05:31:29.733Z,1019.19
2018-09-02T05:32:29.720Z,1019.21
2018-09-02T05:33:29.715Z,1019.22
2018-09-02T05:34:29.725Z,1019.21
2018-09-02T05:35:29.688Z,1019.22
2018-09-02T05:36:29.718Z,1019.19
2018-09-02T05:37:29.667Z,1019.21
2018-09-02T05:38:29.660Z,1019.19
2018-09-02T05:39:29.669Z,1019.23
2018-09-02T05:40:29.632Z,1019.26
2018-09-02T05:41:29.622Z,1019.26
2018-09-02T05:42:29.611Z,1019.28
2018-09-02T05:43:29.604Z,1019.29
2018-09-02T05:44:29.612Z,1019.29
2018-09-02T05:45:29.578Z,1019.29
2018-09-02T05:46:29.567Z,1019.31
2018-09-02T05:47:29.554Z,1019.37
2018-09-02T05:48:29.544Z,1019.33
2018-09-02T05:49:29.556Z,1019.33
2018-09-02T05:50:29.525Z,1019.32
2018-09-02T05:51:29.511Z,1019.33
2018-09-02T05:52:29.500Z,1019.30
2018-09-02T05:53:29.488Z,1019.34
2018-09-02T05:54:29.502Z,1019.28
2018-09-02T05:55:29.467Z,1019.31
2018-09-02T05:56:29.455Z,1019.27
2018-09-02T05:57:29.496Z,1019.30
2018-09-02T05:58:29.434Z,1019.32
2018-09-02T05:59:29.447Z,1019.31
2018-09-02T06:00:29.410Z,1019.32
2018-09-02T06:01:29.399Z,1019.31
2018-09-02T06:02:29.387Z,1019.32
2018-09-02T06:03:29.377Z,1019.30
2018-09-02T06:04:29.392Z,1019.29
2018-09-02T06:05:29.353Z,1019.31
2018-09-02T06:06:29.342Z,1019.29
2018-09-02T06:07:29.332Z,1019.30
2018-09-02T06:08:29.322Z,1019.30
2018-09-02T06:09:29.343Z,1019.28
2018-09-02T06:10:29.299Z,1019.29
2018-09-02T06:11:29.287Z,1019.27
2018-09-02T06:12:29.279Z,1019.30
2018-09-02T06:13:29.268Z,1019.33
2018-09-02T06:14:29.256Z,1019.34
2018-09-02T06:15:29.269Z,1019.37
2018-09-02T06:16:29.232Z,1019.35
2018-09-02T06:17:29.221Z,1019.33
2018-09-02T06:18:29.209Z,1019.32
2018-09-02T06:19:29.207Z,1019.27
2018-09-02T06:20:32.659Z,1019.24
2018-09-02T06:21:29.175Z,1019.30
2018-09-02T06:22:29.165Z,1019.30
2018-09-02T06:23:29.152Z,1019.30
2018-09-02T06:24:29.145Z,1019.28
2018-09-02T06:25:29.160Z,1019.29
2018-09-02T06:26:29.124Z,1019.32
2018-09-02T06:27:29.107Z,1019.32
2018-09-02T06:28:29.098Z,1019.33
2018-09-02T06:29:29.091Z,1019.30
2018-09-02T06:30:29.100Z,1019.31
2018-09-02T06:31:29.066Z,1019.30
2018-09-02T06:32:29.054Z,1019.27
2018-09-02T06:33:29.042Z,1019.24
2018-09-02T06:34:29.031Z,1019.27
2018-09-02T06:35:29.067Z,1019.27
2018-09-02T06:36:29.009Z,1019.26
2018-09-02T06:37:28.998Z,1019.28
2018-09-02T06:38:28.988Z,1019.27
2018-09-02T06:39:28.993Z,1019.26
2018-09-02T06:40:28.988Z,1019.30
2018-09-02T06:41:28.952Z,1019.29
2018-09-02T06:42:28.943Z,1019.28
2018-09-02T06:43:28.936Z,1019.29
2018-09-02T06:44:28.924Z,1019.29
2018-09-02T06:45:28.932Z,1019.32
2018-09-02T06:46:28.896Z,1019.32
2018-09-02T06:47:28.886Z,1019.31
2018-09-02T06:48:28.876Z,1019.30
2018-09-02T06:49:28.866Z,1019.32
2018-09-02T06:50:28.880Z,1019.29
2018-09-02T06:51:28.843Z,1019.29
2018-09-02T06:52:28.831Z,1019.30
2018-09-02T06:53:28.822Z,1019.32
2018-09-02T06:54:28.809Z,1019.29
2018-09-02T06:55:28.836Z,1019.30
2018-09-02T06:56:28.786Z,1019.30
2018-09-02T06:57:28.775Z,1019.30
2018-09-02T06:58:28.827Z,1019.29
2018-09-02T06:59:28.755Z,1019.29
2018-09-02T07:00:28.766Z,1019.29
2018-09-02T07:01:28.730Z,1019.33
2018-09-02T07:02:28.719Z,1019.29
2018-09-02T07:03:28.708Z,1019.28
2018-09-02T07:04:28.698Z,1019.26
2018-09-02T07:05:28.712Z,1019.25
2018-09-02T07:06:28.680Z,1019.21
2018-09-02T07:07:28.696Z,1019.25
2018-09-02T07:08:28.651Z,1019.22
2018-09-02T07:09:28.640Z,1019.18
2018-09-02T07:10:28.656Z,1019.24
2018-09-02T07:11:28.620Z,1019.24
2018-09-02T07:12:28.608Z,1019.27
2018-09-02T07:13:28.600Z,1019.26
2018-09-02T07:14:28.720Z,1019.23
2018-09-02T07:15:28.600Z,1019.29
2018-09-02T07:16:28.562Z,1019.21
2018-09-02T07:17:28.550Z,1019.19
2018-09-02T07:18:28.541Z,1019.21
2018-09-02T07:19:28.529Z,1019.19
2018-09-02T07:20:28.545Z,1019.16
2018-09-02T07:21:28.516Z,1019.16
2018-09-02T07:22:28.497Z,1019.12
2018-09-02T07:23:28.489Z,1019.11
2018-09-02T07:24:28.474Z,1019.09
2018-09-02T07:25:28.489Z,1019.12
2018-09-02T07:26:28.452Z,1019.10
2018-09-02T07:27:28.441Z,1019.12
2018-09-02T07:28:28.430Z,1019.11
2018-09-02T07:29:28.416Z,1019.08
2018-09-02T07:30:28.435Z,1019.09
2018-09-02T07:31:28.419Z,1019.09
2018-09-02T07:32:28.384Z,1019.10
2018-09-02T07:33:28.372Z,1019.12
2018-09-02T07:34:28.362Z,1019.11
2018-09-02T07:35:28.376Z,1019.12
2018-09-02T07:36:28.338Z,1019.09
2018-09-02T07:37:28.335Z,1019.11
2018-09-02T07:38:28.316Z,1019.05
2018-09-02T07:39:28.305Z,1019.06
2018-09-02T07:40:28.321Z,1019.03
2018-09-02T07:41:28.286Z,1019.11
2018-09-02T07:42:28.274Z,1019.11
2018-09-02T07:43:28.262Z,1019.09
2018-09-02T07:44:28.251Z,1019.08
2018-09-02T07:45:28.265Z,1019.06
2018-09-02T07:46:28.228Z,1019.01
2018-09-02T07:47:28.218Z,1019.01
2018-09-02T07:48:28.204Z,1019.00
2018-09-02T07:49:28.198Z,1019.05
2018-09-02T07:50:28.211Z,1019.00
2018-09-02T07:51:28.173Z,1018.96
2018-09-02T07:52:28.160Z,1018.99
2018-09-02T07:53:28.151Z,1019.03
2018-09-02T07:54:28.191Z,1019.01
2018-09-02T07:55:28.131Z,1019.02
2018-09-02T07:56:28.142Z,1019.01
2018-09-02T07:57:28.105Z,1018.99
2018-09-02T07:58:28.094Z,1018.94
2018-09-02T07:59:28.085Z,1018.95
2018-09-02T08:00:28.096Z,1018.91
2018-09-02T08:01:28.062Z,1018.93
2018-09-02T08:02:28.051Z,1018.93
2018-09-02T08:03:28.040Z,1019.01
2018-09-02T08:04:28.027Z,1018.97
2018-09-02T08:05:28.019Z,1018.94
2018-09-02T08:06:28.031Z,1018.99
2018-09-02T08:07:27.992Z,1018.97
2018-09-02T08:08:27.986Z,1018.94
2018-09-02T08:09:27.973Z,1018.97
2018-09-02T08:10:27.963Z,1018.99
2018-09-02T08:11:27.976Z,1018.87
2018-09-02T08:12:27.951Z,1018.87
2018-09-02T08:13:27.928Z,1018.98
2018-09-02T08:14:27.919Z,1018.90
2018-09-02T08:15:27.908Z,1018.88
2018-09-02T08:16:27.917Z,1018.87
2018-09-02T08:17:27.884Z,1018.86
2018-09-02T08:18:27.872Z,1018.84
2018-09-02T08:19:27.861Z,1018.81
2018-09-02T08:20:27.850Z,1018.80
2018-09-02T08:21:27.862Z,1018.87
2018-09-02T08:22:27.836Z,1018.87
2018-09-02T08:23:27.816Z,1018.81
2018-09-02T08:24:27.805Z,1018.75
2018-09-02T08:25:27.793Z,1018.77
2018-09-02T08:26:27.829Z,1018.80
2018-09-02T08:27:27.772Z,1018.79
2018-09-02T08:28:27.759Z,1018.78
2018-09-02T08:29:27.747Z,1018.79
2018-09-02T08:30:27.735Z,1018.80
2018-09-02T08:31:27.753Z,1018.81
2018-09-02T08:32:27.717Z,1018.77
2018-09-02T08:33:27.703Z,1018.79
2018-09-02T08:34:27.693Z,1018.85
2018-09-02T08:35:27.683Z,1018.78
2018-09-02T08:36:27.695Z,1018.77
2018-09-02T08:37:27.659Z,1018.79
2018-09-02T08:38:27.648Z,1018.75
2018-09-02T08:39:27.636Z,1018.72
2018-09-02T08:40:27.625Z,1018.70
2018-09-02T08:41:27.641Z,1018.65
2018-09-02T08:42:27.609Z,1018.68
2018-09-02T08:43:27.590Z,1018.59
2018-09-02T08:44:27.583Z,1018.61
2018-09-02T08:45:27.571Z,1018.58
2018-09-02T08:46:27.584Z,1018.56
2018-09-02T08:47:27.549Z,1018.57
2018-09-02T08:48:27.536Z,1018.56
2018-09-02T08:49:27.527Z,1018.59
2018-09-02T08:50:27.599Z,1018.61
2018-09-02T08:51:27.529Z,1018.60
2018-09-02T08:52:27.496Z,1018.62
2018-09-02T08:53:27.482Z,1018.60
2018-09-02T08:54:27.493Z,1018.60
2018-09-02T08:55:27.459Z,1018.61
2018-09-02T08:56:27.474Z,1018.56
2018-09-02T08:57:27.436Z,1018.56
2018-09-02T08:58:27.427Z,1018.53
2018-09-02T08:59:27.414Z,1018.55
2018-09-02T09:00:27.401Z,1018.56
2018-09-02T09:01:27.417Z,1018.52
2018-09-02T09:02:27.385Z,1018.48
2018-09-02T09:03:27.369Z,1018.54
2018-09-02T09:04:27.360Z,1018.49
2018-09-02T09:05:27.348Z,1018.54
2018-09-02T09:06:27.364Z,1018.50
2018-09-02T09:07:27.333Z,1018.53
2018-09-02T09:08:27.559Z,1018.47
2018-09-02T09:09:27.303Z,1018.49
2018-09-02T09:10:27.291Z,1018.51
2018-09-02T09:11:27.308Z,1018.42
2018-09-02T09:12:27.271Z,1018.44
2018-09-02T09:13:27.259Z,1018.43
2018-09-02T09:14:27.246Z,1018.44
2018-09-02T09:15:27.237Z,1018.42
2018-09-02T09:16:27.252Z,1018.40
2018-09-02T09:17:27.213Z,1018.40
2018-09-02T09:18:27.205Z,1018.38
2018-09-02T09:19:27.192Z,1018.37
2018-09-02T09:20:27.184Z,1018.36
2018-09-02T09:21:27.251Z,1018.36
2018-09-02T09:22:27.184Z,1018.36
2018-09-02T09:23:27.148Z,1018.35
2018-09-02T09:24:27.138Z,1018.31
2018-09-02T09:25:27.129Z,1018.33
2018-09-02T09:26:27.141Z,1018.33
2018-09-02T09:27:27.105Z,1018.34
2018-09-02T09:28:27.092Z,1018.34
2018-09-02T09:29:27.082Z,1018.34
2018-09-02T09:30:27.072Z,1018.28
2018-09-02T09:31:27.087Z,1018.30
2018-09-02T09:32:27.077Z,1018.30
2018-09-02T09:33:27.039Z,1018.26
2018-09-02T09:34:27.027Z,1018.28
2018-09-02T09:35:27.017Z,1018.23
2018-09-02T09:36:27.031Z,1018.24
2018-09-02T09:37:26.994Z,1018.27
2018-09-02T09:38:26.985Z,1018.19
2018-09-02T09:39:26.973Z,1018.24
2018-09-02T09:40:26.962Z,1018.22
2018-09-02T09:41:26.951Z,1018.21
2018-09-02T09:42:26.964Z,1018.19
2018-09-02T09:43:26.928Z,1018.19
2018-09-02T09:44:26.924Z,1018.16
2018-09-02T09:45:26.905Z,1018.12
2018-09-02T09:46:26.899Z,1018.07
2018-09-02T09:47:26.910Z,1018.13
2018-09-02T09:48:26.872Z,1018.15
2018-09-02T09:49:26.864Z,1018.05
2018-09-02T09:50:26.850Z,1018.06
2018-09-02T09:51:26.843Z,1018.07
2018-09-02T09:52:26.855Z,1018.09
2018-09-02T09:53:26.819Z,1018.05
2018-09-02T09:54:26.808Z,1018.03
2018-09-02T09:55:26.820Z,1018.06
2018-09-02T09:56:26.788Z,1018.09
2018-09-02T09:57:26.802Z,1018.06
2018-09-02T09:58:26.762Z,1018.08
2018-09-02T09:59:26.753Z,1018.07
2018-09-02T10:00:26.744Z,1018.05
2018-09-02T10:01:26.736Z,1018.04
2018-09-02T10:02:26.745Z,1018.08
2018-09-02T10:03:26.709Z,1018.06
2018-09-02T10:04:26.698Z,1017.99
2018-09-02T10:05:26.690Z,1017.98
2018-09-02T10:06:26.674Z,1018.00
2018-09-02T10:07:26.687Z,1018.00
2018-09-02T10:08:26.654Z,1017.96
2018-09-02T10:09:26.647Z,1017.96
2018-09-02T10:10:26.684Z,1017.97
2018-09-02T10:11:26.620Z,1017.92
2018-09-02T10:12:26.638Z,1017.91
2018-09-02T10:13:26.601Z,1017.91
2018-09-02T10:14:26.590Z,1017.88
2018-09-02T10:15:26.577Z,1017.78
2018-09-02T10:16:26.566Z,1017.86
2018-09-02T10:17:26.582Z,1017.76
2018-09-02T10:18:26.543Z,1017.72
2018-09-02T10:19:26.538Z,1017.74
2018-09-02T10:20:26.521Z,1017.67
2018-09-02T10:21:26.511Z,1017.66
2018-09-02T10:22:26.525Z,1017.64
2018-09-02T10:23:26.489Z,1017.61
2018-09-02T10:24:26.478Z,1017.60
2018-09-02T10:25:26.466Z,1017.56
2018-09-02T10:26:26.455Z,1017.59
2018-09-02T10:27:26.581Z,1017.52
2018-09-02T10:28:26.433Z,1017.57
2018-09-02T10:29:26.422Z,1017.51
2018-09-02T10:30:26.410Z,1017.51
2018-09-02T10:31:26.401Z,1017.50
2018-09-02T10:32:26.420Z,1017.49
2018-09-02T10:33:26.420Z,1017.49
2018-09-02T10:34:26.365Z,1017.48
2018-09-02T10:35:26.355Z,1017.47
2018-09-02T10:36:26.345Z,1017.44
2018-09-02T10:37:26.357Z,1017.39
2018-09-02T10:38:26.323Z,1017.41
2018-09-02T10:39:26.310Z,1017.41
2018-09-02T10:40:26.302Z,1017.39
2018-09-02T10:41:26.330Z,1017.40
2018-09-02T10:42:26.303Z,1017.43
2018-09-02T10:43:26.266Z,1017.36
2018-09-02T10:44:26.256Z,1017.40
2018-09-02T10:45:26.243Z,1017.40
2018-09-02T10:46:26.233Z,1017.37
2018-09-02T10:47:26.255Z,1017.33
2018-09-02T10:48:26.211Z,1017.36
2018-09-02T10:49:26.199Z,1017.34
2018-09-02T10:50:26.188Z,1017.30
2018-09-02T10:51:26.175Z,1017.32
2018-09-02T10:52:26.189Z,1017.32
2018-09-02T10:53:26.158Z,1017.29
2018-09-02T10:54:26.143Z,1017.29
2018-09-02T10:55:26.137Z,1017.24
2018-09-02T10:56:26.138Z,1017.21
2018-09-02T10:57:26.136Z,1017.19
2018-09-02T10:58:26.100Z,1017.23
2018-09-02T10:59:26.147Z,1017.22
2018-09-02T11:00:26.078Z,1017.26
2018-09-02T11:01:26.066Z,1017.19
2018-09-02T11:02:26.081Z,1017.24
2018-09-02T11:03:26.044Z,1017.23
2018-09-02T11:04:26.036Z,1017.17
2018-09-02T11:05:26.023Z,1017.12
2018-09-02T11:06:26.012Z,1017.13
2018-09-02T11:07:26.025Z,1017.15
2018-09-02T11:08:25.991Z,1017.11
2018-09-02T11:09:25.979Z,1017.13
2018-09-02T11:10:25.965Z,1017.11
2018-09-02T11:11:25.956Z,1017.11
2018-09-02T11:12:25.971Z,1017.13
2018-09-02T11:13:25.966Z,1017.10
2018-09-02T11:14:25.924Z,1017.10
2018-09-02T11:15:25.914Z,1017.10
2018-09-02T11:16:25.899Z,1017.12
2018-09-02T11:17:25.895Z,1017.10
2018-09-02T11:18:25.903Z,1017.08
2018-09-02T11:19:25.867Z,1017.09
2018-09-02T11:20:25.856Z,1017.07
2018-09-02T11:21:25.847Z,1017.10
2018-09-02T11:22:25.866Z,1017.09
2018-09-02T11:23:25.823Z,1017.08
2018-09-02T11:24:25.812Z,1017.07
2018-09-02T11:25:25.802Z,1017.11
2018-09-02T11:26:25.791Z,1017.06
2018-09-02T11:27:25.782Z,1017.05
2018-09-02T11:28:25.794Z,1017.03
2018-09-02T11:29:25.757Z,1017.05
2018-09-02T11:30:25.747Z,1017.03
2018-09-02T11:31:25.738Z,1017.01
2018-09-02T11:32:25.727Z,1017.03
2018-09-02T11:33:25.740Z,1017.02
2018-09-02T11:34:25.704Z,1016.98
2018-09-02T11:35:25.694Z,1016.97
2018-09-02T11:36:25.681Z,1017.01
2018-09-02T11:37:25.672Z,1016.97
2018-09-02T11:38:25.684Z,1016.94
2018-09-02T11:39:25.649Z,1016.89
2018-09-02T11:40:25.637Z,1016.88
2018-09-02T11:41:25.627Z,1016.89
2018-09-02T11:42:25.617Z,1016.90
2018-09-02T11:43:25.632Z,1016.86
2018-09-02T11:44:25.595Z,1016.86
2018-09-02T11:45:25.583Z,1016.84
2018-09-02T11:46:25.576Z,1016.85
2018-09-02T11:47:25.559Z,1016.86
2018-09-02T11:48:25.574Z,1016.87
2018-09-02T11:49:25.539Z,1016.84
2018-09-02T11:50:25.527Z,1016.81
2018-09-02T11:51:25.516Z,1016.82
2018-09-02T11:52:25.505Z,1016.84
2018-09-02T11:53:25.519Z,1016.81
2018-09-02T11:54:25.483Z,1016.84
2018-09-02T11:55:25.472Z,1016.87
2018-09-02T11:56:25.484Z,1016.80
2018-09-02T11:57:25.449Z,1016.79
2018-09-02T11:58:25.462Z,1016.81
2018-09-02T11:59:25.427Z,1016.75
2018-09-02T12:00:25.417Z,1016.76
2018-09-02T12:01:25.405Z,1016.77
2018-09-02T12:02:25.394Z,1016.76
2018-09-02T12:03:25.410Z,1016.74
2018-09-02T12:04:25.373Z,1016.73
2018-09-02T12:05:25.362Z,1016.74